Biggar, Canada
Current Conditions -  °F | °C
As of 8:00 PM on Friday 19 Dec 2014 (Local Time) from CYQW Reporting Station
Light Snow Light Snow  
Wind Chill: -3°   Ceiling: 300
Heat Index: 14°   Visibility: 1mi
Dew Point: 12°   Wind: 18mph
Humidity: 93%   Direction: 120°ESE
Pressure: 29.83"   Gusts: NA
Location:  52.05°N, 107.98°W
Report Text: CYQW 200200Z AUTO 12016KT 1SM -SN VV003 M10/M11 A2983 RMK ICG SLP141
Loading
Personal Weather Stations






























Interactive Weather Map New forecast layout! Learn more

10-Day Weather Forecast

Advertisements
Track Severe Weather on mobile